SAS32F EKCH-EIDW
Flight info
| Callsign | SAS32F |
|---|---|
| Flight time | 1h 51m |
| Altitude | 36000 |
| Route | ODDON L975 RIDSI DCT LESRA DCT ROPAL DCT ERDOW UL975 DESIG UL70 GUNTU Z196 LELDO M145 BAGSO |
| Aircraft | A320/M-SDE1FGHIJ1RWXYZ/LB1 |
Departure
| Time | 2026-04-22 08:46 |
|---|---|
| Airport | Copenhagen Kastrup Airport (EKCH) |
Arrival
| Time | 2026-04-22 10:37 |
|---|---|
| Airport | Dublin Airport (EIDW) |
| Time | Latitude | Longitude | Altitude | Speed | Heading |
|---|---|---|---|---|---|
| 2026-04-22 08:08 | 55.62605 | 12.64885 | 17 ft | 0 kts | 91° |
| 2026-04-22 08:34 | 55.62605 | 12.64883 | 17 ft | 2 kts | 91° |
| 2026-04-22 08:34 | 55.62605 | 12.64837 | 17 ft | 4 kts | 91° |
| 2026-04-22 08:34 | 55.62607 | 12.64800 | 17 ft | 4 kts | 117° |
| 2026-04-22 08:35 | 55.62623 | 12.64778 | 18 ft | 4 kts | 182° |
| 2026-04-22 08:35 | 55.62631 | 12.64778 | 17 ft | 3 kts | 191° |
| 2026-04-22 08:35 | 55.62605 | 12.64771 | 17 ft | 4 kts | 186° |
| 2026-04-22 08:35 | 55.62584 | 12.64771 | 17 ft | 3 kts | 179° |
| 2026-04-22 08:36 | 55.62557 | 12.64772 | 17 ft | 4 kts | 179° |
| 2026-04-22 08:36 | 55.62530 | 12.64773 | 17 ft | 4 kts | 179° |
| 2026-04-22 08:36 | 55.62503 | 12.64774 | 17 ft | 3 kts | 179° |
| 2026-04-22 08:36 | 55.62498 | 12.64774 | 19 ft | 1 kts | 179° |
| 2026-04-22 08:40 | 55.62473 | 12.64776 | 17 ft | 7 kts | 176° |
| 2026-04-22 08:40 | 55.62419 | 12.64780 | 18 ft | 9 kts | 178° |
| 2026-04-22 08:40 | 55.62347 | 12.64784 | 17 ft | 11 kts | 178° |
| 2026-04-22 08:40 | 55.62261 | 12.64794 | 17 ft | 14 kts | 175° |
| 2026-04-22 08:41 | 55.62170 | 12.64729 | 19 ft | 15 kts | 213° |
| 2026-04-22 08:41 | 55.62075 | 12.64618 | 17 ft | 19 kts | 213° |
| 2026-04-22 08:41 | 55.61973 | 12.64515 | 17 ft | 17 kts | 198° |
| 2026-04-22 08:41 | 55.61862 | 12.64520 | 17 ft | 15 kts | 169° |
| 2026-04-22 08:42 | 55.61752 | 12.64557 | 17 ft | 16 kts | 169° |
| 2026-04-22 08:42 | 55.61647 | 12.64535 | 17 ft | 16 kts | 210° |
| 2026-04-22 08:42 | 55.61548 | 12.64421 | 19 ft | 18 kts | 213° |
| 2026-04-22 08:42 | 55.61436 | 12.64292 | 17 ft | 20 kts | 212° |
| 2026-04-22 08:43 | 55.61316 | 12.64155 | 18 ft | 21 kts | 213° |
| 2026-04-22 08:43 | 55.61193 | 12.64014 | 17 ft | 21 kts | 213° |
| 2026-04-22 08:43 | 55.61070 | 12.63873 | 18 ft | 21 kts | 213° |
| 2026-04-22 08:43 | 55.60950 | 12.63735 | 18 ft | 21 kts | 213° |
| 2026-04-22 08:44 | 55.60830 | 12.63596 | 17 ft | 20 kts | 213° |
| 2026-04-22 08:44 | 55.60719 | 12.63467 | 18 ft | 19 kts | 213° |
| 2026-04-22 08:44 | 55.60611 | 12.63328 | 17 ft | 19 kts | 220° |
| 2026-04-22 08:44 | 55.60513 | 12.63179 | 18 ft | 15 kts | 221° |
| 2026-04-22 08:45 | 55.60433 | 12.63112 | 17 ft | 12 kts | 169° |
| 2026-04-22 08:45 | 55.60366 | 12.63219 | 19 ft | 14 kts | 130° |
| 2026-04-22 08:45 | 55.60351 | 12.63368 | 20 ft | 15 kts | 52° |
| 2026-04-22 08:45 | 55.60525 | 12.63636 | 19 ft | 66 kts | 40° |
| 2026-04-22 08:46 | 55.61037 | 12.64428 | 17 ft | 129 kts | 41° |
| 2026-04-22 08:46 | 55.61824 | 12.65636 | 192 ft | 158 kts | 39° |
| 2026-04-22 08:46 | 55.62651 | 12.66900 | 820 ft | 158 kts | 39° |
| 2026-04-22 08:46 | 55.63494 | 12.68196 | 1439 ft | 165 kts | 38° |
| 2026-04-22 08:47 | 55.64415 | 12.69600 | 1791 ft | 184 kts | 38° |
| 2026-04-22 08:47 | 55.65478 | 12.71047 | 2141 ft | 204 kts | 25° |
| 2026-04-22 08:47 | 55.66916 | 12.71714 | 2514 ft | 225 kts | 360° |
| 2026-04-22 08:47 | 55.68493 | 12.71213 | 3168 ft | 237 kts | 338° |
| 2026-04-22 08:48 | 55.69887 | 12.69605 | 4051 ft | 244 kts | 317° |
| 2026-04-22 08:48 | 55.70885 | 12.67099 | 4885 ft | 256 kts | 295° |
| 2026-04-22 08:48 | 55.71144 | 12.63935 | 5737 ft | 268 kts | 270° |
| 2026-04-22 08:48 | 55.70993 | 12.60612 | 6657 ft | 270 kts | 269° |
| 2026-04-22 08:49 | 55.70829 | 12.57285 | 7588 ft | 272 kts | 269° |
| 2026-04-22 08:49 | 55.70676 | 12.53965 | 8419 ft | 276 kts | 269° |
| 2026-04-22 08:49 | 55.70532 | 12.50544 | 9236 ft | 281 kts | 270° |
| 2026-04-22 08:49 | 55.70395 | 12.47061 | 10025 ft | 285 kts | 270° |
| 2026-04-22 08:50 | 55.70260 | 12.43505 | 10643 ft | 297 kts | 270° |
| 2026-04-22 08:50 | 55.70124 | 12.39711 | 10892 ft | 320 kts | 270° |
| 2026-04-22 08:50 | 55.69979 | 12.35691 | 11399 ft | 330 kts | 270° |
| 2026-04-22 08:50 | 55.69837 | 12.31583 | 12042 ft | 336 kts | 270° |
| 2026-04-22 08:51 | 55.69701 | 12.27420 | 12720 ft | 340 kts | 270° |
| 2026-04-22 08:51 | 55.69566 | 12.23206 | 13395 ft | 344 kts | 270° |
| 2026-04-22 08:51 | 55.69431 | 12.18947 | 14066 ft | 348 kts | 270° |
| 2026-04-22 08:51 | 55.69292 | 12.14704 | 14711 ft | 351 kts | 270° |
| 2026-04-22 08:52 | 55.69149 | 12.10354 | 15335 ft | 355 kts | 270° |
| 2026-04-22 08:52 | 55.69004 | 12.05960 | 15958 ft | 359 kts | 270° |
| 2026-04-22 08:52 | 55.68853 | 12.01517 | 16565 ft | 362 kts | 270° |
| 2026-04-22 08:52 | 55.68695 | 11.97029 | 17165 ft | 366 kts | 270° |
| 2026-04-22 08:53 | 55.68533 | 11.92493 | 17755 ft | 369 kts | 270° |
| 2026-04-22 08:53 | 55.68369 | 11.87933 | 18337 ft | 373 kts | 270° |
| 2026-04-22 08:53 | 55.68200 | 11.83332 | 18920 ft | 376 kts | 270° |
| 2026-04-22 08:53 | 55.68031 | 11.78750 | 19494 ft | 379 kts | 270° |
| 2026-04-22 08:54 | 55.67858 | 11.74064 | 20066 ft | 383 kts | 271° |
| 2026-04-22 08:54 | 55.67685 | 11.69333 | 20632 ft | 386 kts | 271° |
| 2026-04-22 08:54 | 55.67510 | 11.64567 | 21175 ft | 390 kts | 271° |
| 2026-04-22 08:54 | 55.67327 | 11.59750 | 21696 ft | 394 kts | 271° |
| 2026-04-22 08:55 | 55.67141 | 11.54892 | 22218 ft | 397 kts | 270° |
| 2026-04-22 08:55 | 55.66952 | 11.50002 | 22728 ft | 400 kts | 270° |
| 2026-04-22 08:55 | 55.66757 | 11.45064 | 23217 ft | 404 kts | 271° |
| 2026-04-22 08:55 | 55.66559 | 11.40083 | 23704 ft | 407 kts | 270° |
| 2026-04-22 08:56 | 55.66359 | 11.35062 | 24165 ft | 410 kts | 271° |
| 2026-04-22 08:56 | 55.66155 | 11.30000 | 24623 ft | 414 kts | 271° |
| 2026-04-22 08:56 | 55.65947 | 11.24899 | 25063 ft | 417 kts | 270° |
| 2026-04-22 08:56 | 55.65737 | 11.19760 | 25495 ft | 420 kts | 270° |
| 2026-04-22 08:57 | 55.65526 | 11.14583 | 25897 ft | 423 kts | 270° |
| 2026-04-22 08:57 | 55.65311 | 11.09369 | 26307 ft | 426 kts | 270° |
| 2026-04-22 08:57 | 55.65090 | 11.04119 | 26706 ft | 429 kts | 270° |
| 2026-04-22 08:57 | 55.64867 | 10.98907 | 27084 ft | 432 kts | 270° |
| 2026-04-22 08:58 | 55.64634 | 10.93591 | 27450 ft | 434 kts | 270° |
| 2026-04-22 08:58 | 55.64397 | 10.88244 | 27815 ft | 437 kts | 270° |
| 2026-04-22 08:58 | 55.64157 | 10.82868 | 28172 ft | 439 kts | 270° |
| 2026-04-22 08:58 | 55.63915 | 10.77463 | 28521 ft | 442 kts | 270° |
| 2026-04-22 08:59 | 55.63668 | 10.72023 | 28856 ft | 445 kts | 270° |
| 2026-04-22 08:59 | 55.63420 | 10.66550 | 29185 ft | 447 kts | 270° |
| 2026-04-22 08:59 | 55.63170 | 10.61050 | 29526 ft | 449 kts | 270° |
| 2026-04-22 08:59 | 55.62918 | 10.55524 | 29856 ft | 452 kts | 270° |
| 2026-04-22 09:00 | 55.62661 | 10.49962 | 30179 ft | 454 kts | 269° |
| 2026-04-22 09:00 | 55.62397 | 10.44379 | 30498 ft | 457 kts | 269° |
| 2026-04-22 09:00 | 55.62129 | 10.38771 | 30813 ft | 459 kts | 269° |
| 2026-04-22 09:00 | 55.61856 | 10.33127 | 31115 ft | 461 kts | 269° |
| 2026-04-22 09:01 | 55.61582 | 10.27528 | 31416 ft | 463 kts | 269° |
| 2026-04-22 09:01 | 55.61300 | 10.21834 | 31749 ft | 464 kts | 269° |
| 2026-04-22 09:01 | 55.61018 | 10.16148 | 32145 ft | 464 kts | 269° |
| 2026-04-22 09:01 | 55.60735 | 10.10469 | 32534 ft | 463 kts | 268° |
| 2026-04-22 09:02 | 55.60444 | 10.04795 | 32926 ft | 463 kts | 268° |
| 2026-04-22 09:02 | 55.60150 | 9.99129 | 33307 ft | 463 kts | 268° |
| 2026-04-22 09:02 | 55.59854 | 9.93463 | 33685 ft | 463 kts | 268° |
| 2026-04-22 09:02 | 55.59559 | 9.87800 | 34045 ft | 463 kts | 268° |
| 2026-04-22 09:03 | 55.59262 | 9.82138 | 34414 ft | 463 kts | 268° |
| 2026-04-22 09:03 | 55.58961 | 9.76477 | 34764 ft | 463 kts | 267° |
| 2026-04-22 09:03 | 55.58657 | 9.70810 | 35111 ft | 463 kts | 267° |
| 2026-04-22 09:03 | 55.58355 | 9.65147 | 35448 ft | 463 kts | 267° |
| 2026-04-22 09:04 | 55.58052 | 9.59482 | 35768 ft | 463 kts | 267° |
| 2026-04-22 09:04 | 55.57745 | 9.53826 | 36088 ft | 463 kts | 267° |
| 2026-04-22 09:04 | 55.57432 | 9.48166 | 36334 ft | 464 kts | 267° |
| 2026-04-22 09:05 | 55.56795 | 9.36813 | 36395 ft | 471 kts | 267° |
| 2026-04-22 09:05 | 55.56140 | 9.25294 | 36396 ft | 471 kts | 267° |
| 2026-04-22 09:06 | 55.55479 | 9.13774 | 36396 ft | 471 kts | 266° |
| 2026-04-22 09:06 | 55.54798 | 9.02252 | 36397 ft | 471 kts | 266° |
| 2026-04-22 09:07 | 55.54111 | 8.90737 | 36403 ft | 471 kts | 266° |
| 2026-04-22 09:07 | 55.53411 | 8.79196 | 36387 ft | 473 kts | 266° |
| 2026-04-22 09:08 | 55.52693 | 8.67620 | 36386 ft | 475 kts | 266° |
| 2026-04-22 09:08 | 55.51971 | 8.56090 | 36399 ft | 475 kts | 266° |
| 2026-04-22 09:09 | 55.51237 | 8.44496 | 36408 ft | 476 kts | 266° |
| 2026-04-22 09:09 | 55.50495 | 8.32895 | 36413 ft | 475 kts | 266° |
| 2026-04-22 09:10 | 55.49730 | 8.21288 | 36421 ft | 476 kts | 265° |
| 2026-04-22 09:10 | 55.48953 | 8.09687 | 36427 ft | 476 kts | 265° |
| 2026-04-22 09:11 | 55.48170 | 7.98085 | 36428 ft | 477 kts | 265° |
| 2026-04-22 09:11 | 55.47380 | 7.86565 | 36434 ft | 476 kts | 265° |
| 2026-04-22 09:12 | 55.46568 | 7.74991 | 36439 ft | 475 kts | 265° |
| 2026-04-22 09:12 | 55.45753 | 7.63436 | 36441 ft | 475 kts | 265° |
| 2026-04-22 09:13 | 55.44929 | 7.51886 | 36441 ft | 475 kts | 265° |
| 2026-04-22 09:13 | 55.44097 | 7.40344 | 36440 ft | 475 kts | 265° |
| 2026-04-22 09:14 | 55.43254 | 7.28821 | 36443 ft | 474 kts | 264° |
| 2026-04-22 09:14 | 55.42405 | 7.17387 | 36446 ft | 473 kts | 264° |
| 2026-04-22 09:15 | 55.41541 | 7.05903 | 36448 ft | 473 kts | 264° |
| 2026-04-22 09:15 | 55.40663 | 6.94411 | 36449 ft | 473 kts | 264° |
| 2026-04-22 09:16 | 55.39776 | 6.82944 | 36451 ft | 473 kts | 264° |
| 2026-04-22 09:16 | 55.38879 | 6.71482 | 36454 ft | 472 kts | 264° |
| 2026-04-22 09:17 | 55.37969 | 6.60052 | 36454 ft | 471 kts | 264° |
| 2026-04-22 09:17 | 55.37067 | 6.48714 | 36459 ft | 471 kts | 264° |
| 2026-04-22 09:18 | 55.36147 | 6.37306 | 36465 ft | 471 kts | 263° |
| 2026-04-22 09:18 | 55.35209 | 6.25910 | 36473 ft | 471 kts | 263° |
| 2026-04-22 09:19 | 55.34260 | 6.14531 | 36477 ft | 470 kts | 263° |
| 2026-04-22 09:19 | 55.33311 | 6.03168 | 36480 ft | 470 kts | 263° |
| 2026-04-22 09:20 | 55.32348 | 5.91803 | 36485 ft | 470 kts | 263° |
| 2026-04-22 09:20 | 55.31371 | 5.80462 | 36493 ft | 469 kts | 263° |
| 2026-04-22 09:21 | 55.30386 | 5.69208 | 36495 ft | 469 kts | 263° |
| 2026-04-22 09:21 | 55.29386 | 5.57895 | 36495 ft | 468 kts | 263° |
| 2026-04-22 09:22 | 55.28555 | 5.48488 | 36495 ft | 468 kts | 263° |
| 2026-04-22 09:22 | 55.27554 | 5.37194 | 36499 ft | 468 kts | 262° |
| 2026-04-22 09:23 | 55.26366 | 5.24103 | 36515 ft | 467 kts | 262° |
| 2026-04-22 09:23 | 55.25501 | 5.14709 | 36522 ft | 464 kts | 262° |
| 2026-04-22 09:24 | 55.24475 | 5.03655 | 36520 ft | 461 kts | 262° |
| 2026-04-22 09:24 | 55.23434 | 4.92581 | 36516 ft | 459 kts | 262° |
| 2026-04-22 09:25 | 55.22400 | 4.81553 | 36513 ft | 458 kts | 262° |
| 2026-04-22 09:25 | 55.21353 | 4.70563 | 36511 ft | 457 kts | 262° |
| 2026-04-22 09:26 | 55.20288 | 4.59592 | 36511 ft | 456 kts | 262° |
| 2026-04-22 09:26 | 55.19220 | 4.48644 | 36512 ft | 456 kts | 262° |
| 2026-04-22 09:27 | 55.18154 | 4.37785 | 36512 ft | 456 kts | 262° |
| 2026-04-22 09:27 | 55.17062 | 4.26785 | 36513 ft | 455 kts | 261° |
| 2026-04-22 09:28 | 55.15969 | 4.15949 | 36514 ft | 455 kts | 261° |
| 2026-04-22 09:28 | 55.14863 | 4.05051 | 36513 ft | 455 kts | 261° |
| 2026-04-22 09:29 | 55.13319 | 3.94347 | 36513 ft | 456 kts | 248° |
| 2026-04-22 09:29 | 55.10196 | 3.84751 | 36514 ft | 455 kts | 237° |
| 2026-04-22 09:30 | 55.06756 | 3.75479 | 36513 ft | 455 kts | 237° |
| 2026-04-22 09:30 | 55.03322 | 3.66215 | 36513 ft | 454 kts | 237° |
| 2026-04-22 09:31 | 54.99910 | 3.57035 | 36513 ft | 454 kts | 237° |
| 2026-04-22 09:31 | 54.96461 | 3.47817 | 36510 ft | 454 kts | 237° |
| 2026-04-22 09:32 | 54.93008 | 3.38626 | 36513 ft | 453 kts | 237° |
| 2026-04-22 09:32 | 54.89557 | 3.29459 | 36513 ft | 453 kts | 237° |
| 2026-04-22 09:33 | 54.86096 | 3.20324 | 36513 ft | 453 kts | 237° |
| 2026-04-22 09:33 | 54.82635 | 3.11199 | 36510 ft | 452 kts | 237° |
| 2026-04-22 09:34 | 54.79167 | 3.02100 | 36508 ft | 452 kts | 236° |
| 2026-04-22 09:34 | 54.75695 | 2.93021 | 36508 ft | 452 kts | 236° |
| 2026-04-22 09:35 | 54.70499 | 2.79506 | 36508 ft | 451 kts | 236° |
| 2026-04-22 09:35 | 54.67022 | 2.70494 | 36509 ft | 451 kts | 236° |
| 2026-04-22 09:36 | 54.63534 | 2.61486 | 36509 ft | 451 kts | 236° |
| 2026-04-22 09:36 | 54.60055 | 2.52524 | 36504 ft | 449 kts | 236° |
| 2026-04-22 09:37 | 54.56570 | 2.43577 | 36493 ft | 449 kts | 236° |
| 2026-04-22 09:37 | 54.53065 | 2.34632 | 36454 ft | 451 kts | 236° |
| 2026-04-22 09:38 | 54.49539 | 2.25664 | 36448 ft | 453 kts | 236° |
| 2026-04-22 09:38 | 54.45998 | 2.16681 | 36454 ft | 454 kts | 236° |
| 2026-04-22 09:39 | 54.42441 | 2.07694 | 36465 ft | 455 kts | 236° |
| 2026-04-22 09:39 | 54.38898 | 1.98777 | 36472 ft | 455 kts | 235° |
| 2026-04-22 09:40 | 54.35329 | 1.89828 | 36471 ft | 454 kts | 235° |
| 2026-04-22 09:40 | 54.31757 | 1.80897 | 36476 ft | 454 kts | 235° |
| 2026-04-22 09:41 | 54.28176 | 1.71970 | 36479 ft | 454 kts | 235° |
| 2026-04-22 09:41 | 54.24597 | 1.63072 | 36480 ft | 454 kts | 235° |
| 2026-04-22 09:42 | 54.21002 | 1.54189 | 36478 ft | 454 kts | 235° |
| 2026-04-22 09:42 | 54.17425 | 1.45381 | 36478 ft | 454 kts | 235° |
| 2026-04-22 09:43 | 54.13824 | 1.36546 | 36477 ft | 454 kts | 234° |
| 2026-04-22 09:43 | 54.10215 | 1.27719 | 36478 ft | 454 kts | 234° |
| 2026-04-22 09:44 | 54.06602 | 1.18908 | 36471 ft | 454 kts | 234° |
| 2026-04-22 09:44 | 54.02987 | 1.10101 | 36469 ft | 454 kts | 234° |
| 2026-04-22 09:45 | 53.99360 | 1.01321 | 36468 ft | 453 kts | 234° |
| 2026-04-22 09:45 | 53.95732 | 0.92569 | 36473 ft | 453 kts | 235° |
| 2026-04-22 09:46 | 53.92073 | 0.83866 | 36481 ft | 453 kts | 231° |
| 2026-04-22 09:46 | 53.87919 | 0.75861 | 36486 ft | 452 kts | 229° |
| 2026-04-22 09:47 | 53.83759 | 0.67957 | 36488 ft | 452 kts | 229° |
| 2026-04-22 09:47 | 53.79568 | 0.60026 | 36488 ft | 452 kts | 228° |
| 2026-04-22 09:48 | 53.75369 | 0.52121 | 36485 ft | 451 kts | 228° |
| 2026-04-22 09:48 | 53.71181 | 0.44241 | 36481 ft | 450 kts | 228° |
| 2026-04-22 09:49 | 53.66993 | 0.36371 | 36480 ft | 450 kts | 228° |
| 2026-04-22 09:49 | 53.62799 | 0.28531 | 36480 ft | 450 kts | 228° |
| 2026-04-22 09:50 | 53.58603 | 0.20711 | 36479 ft | 450 kts | 228° |
| 2026-04-22 09:50 | 53.54937 | 0.12232 | 36479 ft | 449 kts | 245° |
| 2026-04-22 09:51 | 53.53846 | 0.07324 | 36476 ft | 448 kts | 256° |
| 2026-04-22 09:51 | 53.53336 | 0.02168 | 36473 ft | 447 kts | 267° |
| 2026-04-22 09:51 | 53.53805 | -0.08144 | 36478 ft | 446 kts | 278° |
| 2026-04-22 09:52 | 53.54564 | -0.18347 | 36456 ft | 434 kts | 278° |
| 2026-04-22 09:52 | 53.55284 | -0.28393 | 36455 ft | 432 kts | 278° |
| 2026-04-22 09:53 | 53.56000 | -0.38423 | 36467 ft | 432 kts | 278° |
| 2026-04-22 09:53 | 53.56720 | -0.48468 | 36467 ft | 432 kts | 278° |
| 2026-04-22 09:54 | 53.57428 | -0.58497 | 36461 ft | 432 kts | 277° |
| 2026-04-22 09:54 | 53.58122 | -0.68536 | 36464 ft | 432 kts | 277° |
| 2026-04-22 09:55 | 53.58811 | -0.78591 | 36458 ft | 433 kts | 277° |
| 2026-04-22 09:55 | 53.59501 | -0.88596 | 36450 ft | 433 kts | 277° |
| 2026-04-22 09:56 | 53.60179 | -0.98679 | 36436 ft | 434 kts | 277° |
| 2026-04-22 09:56 | 53.60635 | -1.08817 | 36420 ft | 435 kts | 268° |
| 2026-04-22 09:57 | 53.59764 | -1.18897 | 36371 ft | 435 kts | 262° |
| 2026-04-22 09:57 | 53.58785 | -1.28970 | 36360 ft | 436 kts | 262° |
| 2026-04-22 09:58 | 53.57823 | -1.38993 | 36347 ft | 437 kts | 262° |
| 2026-04-22 09:58 | 53.56824 | -1.49084 | 36342 ft | 437 kts | 262° |
| 2026-04-22 09:59 | 53.55801 | -1.59176 | 36336 ft | 438 kts | 262° |
| 2026-04-22 09:59 | 53.54779 | -1.69287 | 36336 ft | 438 kts | 262° |
| 2026-04-22 10:00 | 53.53746 | -1.79381 | 36346 ft | 438 kts | 261° |
| 2026-04-22 10:00 | 53.52886 | -1.89507 | 36360 ft | 437 kts | 270° |
| 2026-04-22 10:01 | 53.53324 | -1.99674 | 36372 ft | 436 kts | 276° |
| 2026-04-22 10:01 | 53.53903 | -2.09832 | 36392 ft | 437 kts | 276° |
| 2026-04-22 10:02 | 53.54456 | -2.19937 | 36413 ft | 437 kts | 276° |
| 2026-04-22 10:02 | 53.55005 | -2.30120 | 36425 ft | 437 kts | 276° |
| 2026-04-22 10:03 | 53.55551 | -2.40287 | 36443 ft | 436 kts | 276° |
| 2026-04-22 10:03 | 53.56091 | -2.50443 | 36454 ft | 436 kts | 276° |
| 2026-04-22 10:04 | 53.56624 | -2.60592 | 36455 ft | 436 kts | 276° |
| 2026-04-22 10:04 | 53.57143 | -2.70744 | 36460 ft | 435 kts | 275° |
| 2026-04-22 10:05 | 53.57640 | -2.80813 | 36462 ft | 434 kts | 275° |
| 2026-04-22 10:05 | 53.58149 | -2.90931 | 36463 ft | 433 kts | 275° |
| 2026-04-22 10:06 | 53.58644 | -3.01030 | 36463 ft | 433 kts | 275° |
| 2026-04-22 10:06 | 53.59122 | -3.11128 | 36464 ft | 432 kts | 275° |
| 2026-04-22 10:07 | 53.59945 | -3.21116 | 36465 ft | 431 kts | 282° |
| 2026-04-22 10:07 | 53.61174 | -3.30989 | 36460 ft | 431 kts | 282° |
| 2026-04-22 10:08 | 53.62384 | -3.40805 | 36455 ft | 430 kts | 282° |
| 2026-04-22 10:08 | 53.63577 | -3.50584 | 36183 ft | 420 kts | 282° |
| 2026-04-22 10:09 | 53.64158 | -3.55391 | 35938 ft | 417 kts | 282° |
| 2026-04-22 10:09 | 53.64735 | -3.60165 | 35688 ft | 415 kts | 282° |
| 2026-04-22 10:09 | 53.65325 | -3.64906 | 35438 ft | 411 kts | 283° |
| 2026-04-22 10:09 | 53.65969 | -3.69576 | 35187 ft | 408 kts | 284° |
| 2026-04-22 10:10 | 53.66650 | -3.74195 | 34938 ft | 404 kts | 284° |
| 2026-04-22 10:10 | 53.67339 | -3.78755 | 34579 ft | 399 kts | 284° |
| 2026-04-22 10:10 | 53.68018 | -3.83268 | 34106 ft | 396 kts | 284° |
| 2026-04-22 10:10 | 53.68685 | -3.87759 | 33639 ft | 392 kts | 284° |
| 2026-04-22 10:11 | 53.69326 | -3.92150 | 33174 ft | 389 kts | 284° |
| 2026-04-22 10:11 | 53.69962 | -3.96564 | 32703 ft | 385 kts | 284° |
| 2026-04-22 10:11 | 53.70583 | -4.00939 | 32247 ft | 381 kts | 284° |
| 2026-04-22 10:11 | 53.71195 | -4.05271 | 31792 ft | 378 kts | 283° |
| 2026-04-22 10:12 | 53.71685 | -4.09600 | 31337 ft | 374 kts | 276° |
| 2026-04-22 10:12 | 53.71865 | -4.13966 | 30879 ft | 371 kts | 275° |
| 2026-04-22 10:12 | 53.72027 | -4.18297 | 30461 ft | 367 kts | 275° |
| 2026-04-22 10:12 | 53.72188 | -4.22582 | 30038 ft | 364 kts | 275° |
| 2026-04-22 10:13 | 53.72350 | -4.26832 | 29619 ft | 361 kts | 275° |
| 2026-04-22 10:13 | 53.72509 | -4.31038 | 29217 ft | 358 kts | 275° |
| 2026-04-22 10:13 | 53.72664 | -4.35222 | 28816 ft | 355 kts | 275° |
| 2026-04-22 10:13 | 53.72815 | -4.39373 | 28418 ft | 353 kts | 275° |
| 2026-04-22 10:14 | 53.72963 | -4.43500 | 28033 ft | 351 kts | 275° |
| 2026-04-22 10:14 | 53.73110 | -4.47608 | 27651 ft | 350 kts | 275° |
| 2026-04-22 10:14 | 53.73255 | -4.51694 | 27274 ft | 347 kts | 275° |
| 2026-04-22 10:14 | 53.73399 | -4.55758 | 26900 ft | 345 kts | 275° |
| 2026-04-22 10:15 | 53.73540 | -4.59738 | 26525 ft | 343 kts | 275° |
| 2026-04-22 10:15 | 53.73680 | -4.63741 | 26152 ft | 340 kts | 275° |
| 2026-04-22 10:15 | 53.73815 | -4.67716 | 25776 ft | 338 kts | 275° |
| 2026-04-22 10:15 | 53.73947 | -4.71662 | 25385 ft | 335 kts | 274° |
| 2026-04-22 10:16 | 53.74074 | -4.75582 | 24995 ft | 333 kts | 274° |
| 2026-04-22 10:16 | 53.74200 | -4.79474 | 24607 ft | 331 kts | 274° |
| 2026-04-22 10:16 | 53.74326 | -4.83344 | 24208 ft | 329 kts | 274° |
| 2026-04-22 10:16 | 53.74454 | -4.87193 | 23816 ft | 327 kts | 274° |
| 2026-04-22 10:17 | 53.74582 | -4.91018 | 23413 ft | 326 kts | 274° |
| 2026-04-22 10:17 | 53.74710 | -4.94834 | 23012 ft | 324 kts | 274° |
| 2026-04-22 10:17 | 53.74834 | -4.98640 | 22611 ft | 323 kts | 274° |
| 2026-04-22 10:17 | 53.74952 | -5.02425 | 22210 ft | 322 kts | 274° |
| 2026-04-22 10:18 | 53.75067 | -5.06151 | 21811 ft | 322 kts | 274° |
| 2026-04-22 10:18 | 53.75182 | -5.09930 | 21404 ft | 321 kts | 273° |
| 2026-04-22 10:18 | 53.75131 | -5.13703 | 21005 ft | 321 kts | 263° |
| 2026-04-22 10:18 | 53.74638 | -5.17364 | 20605 ft | 320 kts | 252° |
| 2026-04-22 10:19 | 53.73918 | -5.20923 | 20202 ft | 319 kts | 251° |
| 2026-04-22 10:19 | 53.73201 | -5.24471 | 19803 ft | 319 kts | 251° |
| 2026-04-22 10:19 | 53.72485 | -5.28011 | 19404 ft | 318 kts | 251° |
| 2026-04-22 10:19 | 53.71768 | -5.31539 | 19007 ft | 318 kts | 251° |
| 2026-04-22 10:20 | 53.71049 | -5.35066 | 18605 ft | 317 kts | 251° |
| 2026-04-22 10:20 | 53.70338 | -5.38546 | 18213 ft | 317 kts | 250° |
| 2026-04-22 10:20 | 53.69618 | -5.42063 | 17813 ft | 317 kts | 250° |
| 2026-04-22 10:20 | 53.68899 | -5.45576 | 17432 ft | 316 kts | 250° |
| 2026-04-22 10:21 | 53.68181 | -5.49080 | 17043 ft | 315 kts | 251° |
| 2026-04-22 10:21 | 53.67642 | -5.52664 | 16659 ft | 315 kts | 257° |
| 2026-04-22 10:21 | 53.67175 | -5.56281 | 16278 ft | 314 kts | 256° |
| 2026-04-22 10:21 | 53.66866 | -5.58665 | 16023 ft | 314 kts | 256° |
| 2026-04-22 10:22 | 53.66398 | -5.62266 | 15640 ft | 314 kts | 256° |
| 2026-04-22 10:22 | 53.65928 | -5.65858 | 15261 ft | 313 kts | 256° |
| 2026-04-22 10:22 | 53.65455 | -5.69440 | 14885 ft | 312 kts | 255° |
| 2026-04-22 10:22 | 53.64982 | -5.73012 | 14505 ft | 312 kts | 255° |
| 2026-04-22 10:23 | 53.64509 | -5.76580 | 14123 ft | 312 kts | 255° |
| 2026-04-22 10:23 | 53.64038 | -5.80137 | 13753 ft | 311 kts | 255° |
| 2026-04-22 10:23 | 53.63573 | -5.83655 | 13514 ft | 305 kts | 255° |
| 2026-04-22 10:23 | 53.63108 | -5.87143 | 13154 ft | 305 kts | 254° |
| 2026-04-22 10:24 | 53.62643 | -5.90628 | 12774 ft | 305 kts | 254° |
| 2026-04-22 10:24 | 53.62174 | -5.94116 | 12384 ft | 306 kts | 254° |
| 2026-04-22 10:24 | 53.61708 | -5.97567 | 11999 ft | 306 kts | 253° |
| 2026-04-22 10:24 | 53.61236 | -6.01078 | 11610 ft | 307 kts | 253° |
| 2026-04-22 10:25 | 53.60763 | -6.04593 | 11222 ft | 308 kts | 253° |
| 2026-04-22 10:25 | 53.60289 | -6.08113 | 10829 ft | 308 kts | 253° |
| 2026-04-22 10:25 | 53.59812 | -6.11630 | 10454 ft | 308 kts | 253° |
| 2026-04-22 10:25 | 53.59394 | -6.15127 | 10223 ft | 304 kts | 256° |
| 2026-04-22 10:26 | 53.59030 | -6.18655 | 9815 ft | 306 kts | 257° |
| 2026-04-22 10:26 | 53.58689 | -6.22204 | 9415 ft | 307 kts | 257° |
| 2026-04-22 10:26 | 53.58353 | -6.25762 | 9023 ft | 309 kts | 257° |
| 2026-04-22 10:26 | 53.58019 | -6.29280 | 8631 ft | 308 kts | 257° |
| 2026-04-22 10:27 | 53.57677 | -6.32807 | 8303 ft | 301 kts | 257° |
| 2026-04-22 10:27 | 53.57341 | -6.36223 | 7975 ft | 292 kts | 257° |
| 2026-04-22 10:27 | 53.57008 | -6.39549 | 7648 ft | 284 kts | 256° |
| 2026-04-22 10:27 | 53.56678 | -6.42787 | 7345 ft | 277 kts | 256° |
| 2026-04-22 10:28 | 53.56355 | -6.45941 | 7049 ft | 272 kts | 256° |
| 2026-04-22 10:28 | 53.56030 | -6.49085 | 6749 ft | 272 kts | 256° |
| 2026-04-22 10:28 | 53.55704 | -6.52210 | 6506 ft | 270 kts | 256° |
| 2026-04-22 10:28 | 53.55381 | -6.55298 | 6275 ft | 266 kts | 255° |
| 2026-04-22 10:29 | 53.55066 | -6.58336 | 6056 ft | 262 kts | 256° |
| 2026-04-22 10:29 | 53.54748 | -6.61343 | 5800 ft | 259 kts | 253° |
| 2026-04-22 10:29 | 53.54103 | -6.64025 | 5555 ft | 245 kts | 229° |
| 2026-04-22 10:29 | 53.52971 | -6.66023 | 5302 ft | 229 kts | 206° |
| 2026-04-22 10:30 | 53.51579 | -6.67177 | 4872 ft | 223 kts | 187° |
| 2026-04-22 10:30 | 53.50105 | -6.67498 | 4689 ft | 205 kts | 169° |
| 2026-04-22 10:30 | 53.48758 | -6.67121 | 4622 ft | 192 kts | 154° |
| 2026-04-22 10:30 | 53.47575 | -6.66183 | 4554 ft | 186 kts | 141° |
| 2026-04-22 10:31 | 53.46608 | -6.64794 | 4420 ft | 181 kts | 127° |
| 2026-04-22 10:31 | 53.45904 | -6.63059 | 4251 ft | 180 kts | 114° |
| 2026-04-22 10:31 | 53.45498 | -6.61099 | 4055 ft | 177 kts | 102° |
| 2026-04-22 10:31 | 53.45362 | -6.59059 | 3833 ft | 174 kts | 96° |
| 2026-04-22 10:32 | 53.45258 | -6.57050 | 3606 ft | 172 kts | 97° |
| 2026-04-22 10:32 | 53.45155 | -6.55064 | 3406 ft | 169 kts | 96° |
| 2026-04-22 10:32 | 53.45055 | -6.53132 | 3167 ft | 164 kts | 96° |
| 2026-04-22 10:32 | 53.44958 | -6.51278 | 2944 ft | 154 kts | 96° |
| 2026-04-22 10:33 | 53.44868 | -6.49568 | 2745 ft | 141 kts | 96° |
| 2026-04-22 10:33 | 53.44785 | -6.48001 | 2565 ft | 129 kts | 96° |
| 2026-04-22 10:33 | 53.44707 | -6.46543 | 2401 ft | 123 kts | 96° |
| 2026-04-22 10:33 | 53.44632 | -6.45136 | 2241 ft | 121 kts | 95° |
| 2026-04-22 10:34 | 53.44559 | -6.43747 | 2098 ft | 119 kts | 95° |
| 2026-04-22 10:34 | 53.44486 | -6.42391 | 1939 ft | 118 kts | 95° |
| 2026-04-22 10:34 | 53.44413 | -6.41023 | 1780 ft | 118 kts | 95° |
| 2026-04-22 10:34 | 53.44338 | -6.39660 | 1620 ft | 117 kts | 95° |
| 2026-04-22 10:35 | 53.44269 | -6.38295 | 1467 ft | 117 kts | 94° |
| 2026-04-22 10:35 | 53.44202 | -6.36937 | 1319 ft | 116 kts | 94° |
| 2026-04-22 10:35 | 53.44128 | -6.35595 | 1160 ft | 115 kts | 95° |
| 2026-04-22 10:35 | 53.44051 | -6.34243 | 1016 ft | 117 kts | 95° |
| 2026-04-22 10:36 | 53.43982 | -6.32888 | 846 ft | 117 kts | 94° |
| 2026-04-22 10:36 | 53.43912 | -6.31527 | 664 ft | 118 kts | 95° |
| 2026-04-22 10:36 | 53.43831 | -6.30151 | 503 ft | 119 kts | 94° |
| 2026-04-22 10:36 | 53.43757 | -6.28758 | 346 ft | 121 kts | 95° |
| 2026-04-22 10:37 | 53.43676 | -6.27364 | 216 ft | 113 kts | 94° |
| 2026-04-22 10:37 | 53.43587 | -6.25701 | 215 ft | 23 kts | 96° |
| 2026-04-22 10:37 | 53.43579 | -6.25556 | 216 ft | 12 kts | 95° |
| 2026-04-22 10:38 | 53.43566 | -6.25401 | 212 ft | 15 kts | 103° |
| 2026-04-22 10:38 | 53.43526 | -6.25222 | 214 ft | 18 kts | 115° |
| 2026-04-22 10:38 | 53.43461 | -6.25036 | 211 ft | 20 kts | 121° |
| 2026-04-22 10:38 | 53.43402 | -6.24860 | 213 ft | 20 kts | 119° |
| 2026-04-22 10:39 | 53.43357 | -6.24660 | 212 ft | 18 kts | 98° |
| 2026-04-22 10:39 | 53.43347 | -6.24465 | 211 ft | 12 kts | 98° |
| 2026-04-22 10:39 | 53.43282 | -6.24404 | 214 ft | 13 kts | 184° |
| 2026-04-22 10:39 | 53.43198 | -6.24441 | 211 ft | 12 kts | 226° |
| 2026-04-22 10:40 | 53.43193 | -6.24578 | 211 ft | 11 kts | 275° |
| 2026-04-22 10:40 | 53.43199 | -6.24706 | 211 ft | 10 kts | 273° |
| 2026-04-22 10:40 | 53.43155 | -6.24757 | 216 ft | 9 kts | 184° |
| 2026-04-22 10:40 | 53.43108 | -6.24763 | 214 ft | 0 kts | 185° |
| 2026-04-22 10:41 | 53.43105 | -6.24763 | 215 ft | 2 kts | 185° |
| 2026-04-22 10:41 | 53.43095 | -6.24764 | 211 ft | 0 kts | 185° |